August 18, 2022

Time Code Weather Temp. Visibility Ceiling Wind METAR/SPECI
20:25
V
18 °C 10 km+ - 040° 040° 6 kt METAR EHLW 181825Z AUTO 04006KT 360V080 9999 NCD 18/15 Q1013 BLU
19:55
V
19 °C 10 km+ - 020° 020° 6 kt METAR EHLW 181755Z AUTO 02006KT 350V060 9999 NCD 19/15 Q1013 BLU
19:25
V
20 °C 10 km+ - 030° 030° 7 kt METAR EHLW 181725Z AUTO 03007KT 350V070 9999 NCD 20/15 Q1013 BLU
18:55
V
21 °C 10 km+ - 020° 020° 6 kt METAR EHLW 181655Z AUTO 02006KT 9999 NCD 21/16 Q1013 BLU
18:25
V
21 °C 10 km+ - 020° 020° 5 kt METAR EHLW 181625Z AUTO 02005KT 340V080 9999 NCD 21/16 Q1013 BLU
17:55
V
21 °C 10 km+ - 020° 020° 5 kt METAR EHLW 181555Z AUTO 02005KT 300V060 9999 NCD 21/15 Q1013 BLU
17:25
M
22 °C 10 km+ 2,500 ft 030° 030° 4 kt METAR EHLW 181525Z AUTO 03004KT 330V100 9999 BKN025 22/15 Q1014 BLU
16:55
V
21 °C 10 km+ - 030° 030° 4 kt METAR EHLW 181455Z AUTO 03004KT 300V080 9999 FEW028 21/15 Q1014 BLU
16:29
V
21 °C 10 km+ - 040° 040° 7 kt METAR EHLW 181429Z AUTO 04007KT 350V090 9999 SCT025 21/16 Q1013 BLU
16:25
M
22 °C 10 km+ 2,400 ft 030° 030° 6 kt METAR EHLW 181425Z AUTO 03006KT 350V090 9999 BKN024 22/16 Q1013 WHT
16:19
V
22 °C 10 km+ - 020° 020° 6 kt METAR EHLW 181419Z AUTO 02006KT 320V070 9999 SCT024 22/16 Q1013 WHT
15:55
V
21 °C 10 km+ 3,100 ft 040° 040° 7 kt METAR EHLW 181355Z AUTO 04007KT 350V070 9999 OVC031 21/15 Q1013 BLU
15:35
M
22 °C 10 km+ 2,700 ft 020° 020° 7 kt METAR EHLW 181335Z AUTO 02007KT 350V070 9999 FEW023 BKN027 OVC033 22/16 Q1013 BLU NOSIG
15:25
M
21 °C 10 km+ 2,300 ft 010° 010° 7 kt METAR EHLW 181325Z AUTO 01007KT 330V050 9999 OVC023 21/16 Q1013 WHT NOSIG
15:10
M
21 °C 10 km+ 2,700 ft 020° 020° 7 kt METAR EHLW 181310Z AUTO 02007KT 350V100 9999 SCT023 BKN027 21/16 Q1013 WHT NOSIG
14:55
M
21 °C 10 km+ 2,300 ft 020° 020° 7 kt METAR EHLW 181255Z AUTO 02007KT 340V070 9999 BKN023 21/16 Q1014 WHT TEMPO SCT016 BKN020
14:39
V
21 °C 10 km+ - 050° 050° 7 kt METAR EHLW 181239Z AUTO 05007KT 350V100 9999 SCT022 SCT038 21/16 Q1014 WHT TEMPO SCT016 BKN020
14:25
V
21 °C 10 km+ 3,700 ft 040° 040° 7 kt METAR EHLW 181225Z AUTO 04007KT 350V070 9999 FEW021 BKN037 21/16 Q1014 BLU TEMPO SCT016 BKN020
14:13
V
22 °C 10 km+ 3,700 ft 030° 030° 8 kt METAR EHLW 181213Z AUTO 03008KT 350V070 9999 SCT021 SCT031 BKN037 22/17 Q1014 WHT TEMPO SCT016 BKN020
14:02
V
21 °C 10 km+ 3,500 ft 030° 030° 7 kt METAR EHLW 181202Z AUTO 03007KT 360V060 9999 FEW019/// SCT027/// BKN035/// 21/17 Q1014 BLU TEMPO SCT016 BKN020
13:55
M
21 °C 10 km+ 1,900 ft 020° 020° 7 kt METAR EHLW 181155Z AUTO 02007KT 350V060 9999 BKN019 OVC023 21/16 Q1014 WHT TEMPO SCT016 BKN020
13:42
M
21 °C 10 km+ 2,800 ft 030° 030° 7 kt METAR EHLW 181142Z AUTO 03007KT 340V080 9999 FEW019 SCT024 OVC028 21/16 Q1014 WHT TEMPO SCT016 BKN020
13:26
V
20 °C 10 km+ - 040° 040° 8 kt METAR EHLW 181126Z AUTO 04008KT 350V080 9999 FEW017 SCT034 20/17 Q1014 BLU TEMPO SCT016 BKN020
13:25
M
20 °C 10 km+ 2,100 ft 020° 020° 8 kt METAR EHLW 181125Z AUTO 02008KT 350V050 9999 SCT017 BKN021 BKN031 20/16 Q1014 WHT TEMPO SCT016 BKN020
12:55
M
21 °C 10 km+ 2,100 ft 030° 030° 7 kt METAR EHLW 181055Z AUTO 03007KT 330V070 9999 SCT017 BKN021 BKN029 21/17 Q1014 WHT TEMPO SCT016 BKN020
12:25
M
20 °C 10 km+ 2,500 ft 030° 030° 7 kt METAR EHLW 181025Z AUTO 03007KT 330V060 9999 SCT016 BKN025 BKN031 20/17 Q1014 WHT TEMPO SCT016 BKN020
11:55
M
20 °C 10 km+ 2,100 ft 020° 020° 8 kt METAR EHLW 180955Z AUTO 02008KT 350V070 9999 SCT015 BKN021 OVC027 20/17 Q1014 WHT TEMPO SCT016 BKN020
11:25
M
20 °C 10 km+ 1,500 ft 020° 020° 7 kt METAR EHLW 180925Z AUTO 02007KT 010V110 9999 BKN015 BKN019 BKN027 20/16 Q1014 WHT TEMPO SCT016 BKN020
11:13
M
20 °C 10 km+ 2,100 ft 040° 040° 7 kt METAR EHLW 180913Z AUTO 04007KT 350V060 9999 FEW014 SCT016 BKN021 20/16 Q1014 WHT TEMPO SCT016 BKN020
11:06
M
20 °C 10 km+ 1,400 ft 030° 030° 8 kt METAR EHLW 180906Z AUTO 03008KT 350V070 9999 BKN014 BKN017 BKN025 20/16 Q1014 GRN TEMPO SCT016 BKN020
11:00
M
20 °C 10 km+ 2,400 ft 030° 030° 8 kt METAR EHLW 180900Z AUTO 03008KT 360V080 9999 FEW014 BKN024 BKN028 20/17 Q1014 WHT TEMPO SCT016 BKN020
10:55
M
20 °C 10 km+ 2,100 ft 030° 030° 8 kt METAR EHLW 180855Z AUTO 03008KT 340V070 9999 SCT017 BKN021 OVC025 20/16 Q1014 WHT NOSIG
10:42
M
20 °C 10 km+ 1,700 ft 020° 020° 10 kt METAR EHLW 180842Z AUTO 02010KT 350V050 9999 SCT013 BKN017 OVC023 20/17 Q1014 GRN NOSIG
10:25
M
20 °C 10 km+ 2,300 ft 030° 030° 12 kt METAR EHLW 180825Z AUTO 03012KT 9999 FEW012 BKN023 20/17 Q1013 WHT NOSIG
10:13
M
19 °C 10 km+ 1,600 ft 020° 020° 9 kt METAR EHLW 180813Z AUTO 02009KT 9999 FEW011 BKN016 BKN019 19/16 Q1013 WHT NOSIG
09:55
M
19 °C 10 km+ 1,000 ft 020° 020° 9 kt METAR EHLW 180755Z AUTO 02009KT 360V070 9999 BKN010 BKN016 BKN042 19/17 Q1013 GRN NOSIG
09:27
V
19 °C 10 km+ 3,400 ft 020° 020° 10 kt METAR EHLW 180727Z AUTO 02010KT 350V050 9999 FEW008 OVC034 19/17 Q1013 BLU NOSIG
09:25
M
19 °C 10 km+ 1,300 ft 020° 020° 10 kt METAR EHLW 180725Z AUTO 02010KT 9999 FEW007 SCT008 BKN013 19/17 Q1013 GRN BECMG SCT015 BKN020
09:12
I
19 °C 10 km+ 800 ft 020° 020° 9 kt METAR EHLW 180712Z AUTO 02009KT 340V050 9999 SCT007 BKN008 BKN009 19/17 Q1013 GRN BECMG SCT015 BKN020
09:04
I
18 °C 10 km+ 700 ft 020° 020° 7 kt METAR EHLW 180704Z AUTO 02007KT 340V040 9999 FEW005 BKN007 OVC008 18/17 Q1013 GRN TEMPO 3000 RA FEW002 SCT005 BKN020
08:55
I
18 °C 10 km+ 600 ft 020° 020° 9 kt METAR EHLW 180655Z AUTO 02009KT 350V060 9999 SCT005 BKN006 OVC008 18/17 Q1013 YLO TEMPO 3000 RA FEW002 SCT005 BKN020
08:36
I
18 °C 10 km+ 600 ft 010° 010° 7 kt METAR EHLW 180636Z AUTO 01007KT 350V050 9999 SCT004 OVC006 18/18 Q1013 YLO TEMPO 3000 RA FEW002 SCT005 BKN020
08:25
I
18 °C 10 km+ 600 ft 030° 030° 8 kt METAR EHLW 180625Z AUTO 03008KT 360V060 9999 SCT004 BKN006 BKN012 18/17 Q1013 REDZ YLO TEMPO 3000 RA FEW002 SCT005 BKN020
08:15
M
18 °C 9 km 1,700 ft 030° 030° 8 kt METAR EHLW 180615Z AUTO 03008KT 340V070 9000 DZ FEW005 SCT006 BKN017 18/17 Q1013 YLO TEMPO 3000 RA FEW002 SCT005 BKN020
08:08
M
18 °C 6 km 1,700 ft 030° 030° 9 kt METAR EHLW 180608Z AUTO 03009KT 350V070 6000 DZ FEW005 BKN017 BKN021 18/17 Q1013 WHT TEMPO 3000 RA FEW002 SCT005 BKN020
08:04
M
18 °C 9 km 1,600 ft 030° 030° 9 kt METAR EHLW 180604Z AUTO 03009KT 340V070 9000 DZRA FEW007 SCT011 BKN016 18/17 Q1013 GRN TEMPO 3000 RA FEW002 SCT005 BKN020
07:58
M
18 °C 8 km 1,000 ft 020° 020° 8 kt METAR EHLW 180558Z AUTO 02008KT 340V040 8000 -RADZ FEW003 SCT007 BKN010 18/17 Q1013 GRN TEMPO 3000 RA FEW002 SCT005 BKN020
07:55
I
18 °C 8 km 500 ft 010° 010° 7 kt METAR EHLW 180555Z AUTO 01007KT 330V040 8000 SHRA FEW003 SCT004 BKN005 18/17 Q1013 REDZ YLO TEMPO 3000 RA FEW002 SCT005 BKN020
07:42
L
18 °C 3.8 km 400 ft 340° 340° 6 kt METAR EHLW 180542Z AUTO 34006KT 300V030 3800 +SHRA +DZ FEW002 BKN004 BKN005 18/17 Q1013 YLO
07:34
I
18 °C 3.4 km 900 ft 340° 340° 6 kt METAR EHLW 180534Z AUTO 34006KT 320V020 3400 -RADZ FEW004 SCT006 BKN009 18/18 Q1013 YLO
07:25
M
18 °C 10 km+ 1,400 ft 340° 340° 6 kt METAR EHLW 180525Z AUTO 34006KT 310V010 9999 FEW006 BKN014 BKN018 18/17 Q1013 REDZ GRN
07:11
M
18 °C 10 km+ 1,400 ft 350° 350° 5 kt METAR EHLW 180511Z AUTO 35005KT 9999 FEW004 SCT011 BKN014 18/17 Q1013 GRN
07:07
M
18 °C 10 km+ 1,600 ft 350° 350° 4 kt METAR EHLW 180507Z AUTO 35004KT 330V030 9999 FEW004 SCT014 OVC016 18/17 Q1013 GRN
06:59
M
18 °C 5 km 1,900 ft 010° 010° 3 kt METAR EHLW 180459Z AUTO 01003KT 320V030 5000 -RA FEW008 SCT015 BKN019 18/17 Q1013 WHT
06:55
M
18 °C 9 km 1,500 ft 010° 010° 3 kt METAR EHLW 180455Z AUTO 01003KT 320V030 9000 BR FEW005 SCT010 BKN015 18/17 Q1013 GRN
06:41
I
18 °C 10 km+ 700 ft 340° 340° 4 kt METAR EHLW 180441Z AUTO 34004KT 320V020 9999 FEW006 BKN007 BKN009 18/17 Q1013 GRN
06:34
M
18 °C 10 km+ 1,000 ft 350° 350° 3 kt METAR EHLW 180434Z AUTO 35003KT 320V030 9999 SCT006 SCT008 BKN010 18/17 Q1013 YLO
06:25
M
18 °C 10 km+ 1,400 ft Var Var 2 kt METAR EHLW 180425Z AUTO VRB02KT 9999 +DZ FEW010 BKN014 OVC016 18/17 Q1012 GRN
06:20
M
18 °C 5 km 1,500 ft Var Var 2 kt METAR EHLW 180420Z AUTO VRB02KT 5000 +DZRA FEW007 OVC015 18/17 Q1013 WHT
06:13
M
18 °C 10 km+ 1,600 ft Var Var 1 kt METAR EHLW 180413Z AUTO VRB01KT 9999 FEW007 OVC016 18/17 Q1012 WHT
06:01
M
18 °C 6 km 1,400 ft Var Var 2 kt METAR EHLW 180401Z AUTO VRB02KT 6000 DZ FEW007 SCT008 BKN014 18/17 Q1012 GRN
05:55
M
18 °C 6 km 1,400 ft 200° 200° 2 kt METAR EHLW 180355Z AUTO 20002KT 6000 DZRA FEW007 OVC014 18/17 Q1012 GRN
05:34
M
18 °C 10 km+ 1,300 ft Var Var 2 kt METAR EHLW 180334Z AUTO VRB02KT 9999 BKN013 BKN019 BKN028 18/17 Q1012 GRN
05:30
V
18 °C 10 km+ 3,100 ft 360° 360° 2 kt METAR EHLW 180330Z AUTO 36002KT 9999 FEW013 SCT020 OVC031 18/17 Q1012 WHT
05:25
V
18 °C 10 km+ 3,100 ft Var Var 2 kt METAR EHLW 180325Z AUTO VRB02KT 9999 FEW014 BKN031 OVC036 18/17 Q1012 BLU
05:01
M
18 °C 10 km+ 2,900 ft 340° 340° 3 kt METAR EHLW 180301Z AUTO 34003KT 300V360 9999 FEW016 OVC029 18/17 Q1012 BLU
04:55
M
17 °C 10 km+ 1,500 ft 340° 340° 4 kt METAR EHLW 180255Z AUTO 34004KT 9999 FEW011 BKN015 OVC032 17/17 Q1012 WHT
04:29
V
18 °C 10 km+ 3,000 ft 320° 320° 4 kt METAR EHLW 180229Z AUTO 32004KT 320V020 9999 FEW018 BKN030 OVC035 18/17 Q1012 BLU
04:25
M
18 °C 10 km+ 2,000 ft 330° 330° 3 kt METAR EHLW 180225Z AUTO 33003KT 320V020 9999 SCT015 BKN020 OVC030 18/17 Q1012 WHT
04:18
M
18 °C 10 km+ 1,600 ft 330° 330° 3 kt METAR EHLW 180218Z AUTO 33003KT 300V360 9999 FEW013 BKN016 OVC020 18/17 Q1012 WHT
04:02
M
17 °C 10 km+ 1,200 ft Var Var 2 kt METAR EHLW 180202Z AUTO VRB02KT 9999 FEW008 SCT010 BKN012 17/17 Q1012 GRN
04:01
M
17 °C 10 km+ 1,600 ft 330° 330° 2 kt METAR EHLW 180201Z AUTO 33002KT 9999 FEW010 SCT012 OVC016 17/17 Q1012 GRN
03:55
M
17 °C 10 km+ 1,600 ft 330° 330° 3 kt METAR EHLW 180155Z AUTO 33003KT 9999 SCT010 BKN016 OVC019 17/17 Q1012 GRN
03:36
M
17 °C 10 km+ 1,500 ft 320° 320° 4 kt METAR EHLW 180136Z AUTO 32004KT 310V010 9999 FEW012 BKN015 OVC019 17/17 Q1012 WHT
03:25
M
17 °C 10 km+ 1,400 ft 320° 320° 4 kt METAR EHLW 180125Z AUTO 32004KT 9999 FEW010 BKN014 OVC110 17/17 Q1012 GRN
03:21
M
17 °C 10 km+ 1,400 ft 320° 320° 4 kt METAR EHLW 180121Z AUTO 32004KT 9999 FEW010 BKN014 OVC110 17/16 Q1012 GRN
03:04
I
17 °C 10 km+ 900 ft Var Var 2 kt METAR EHLW 180104Z AUTO VRB02KT 9999 BKN009 OVC010 17/17 Q1012 GRN
02:55
V
17 °C 10 km+ 8,300 ft 340° 340° 3 kt METAR EHLW 180055Z AUTO 34003KT 290V360 9999 FEW010 SCT021 OVC083 17/17 Q1012 WHT
02:41
V
17 °C 10 km+ 11,000 ft 340° 340° 4 kt METAR EHLW 180041Z AUTO 34004KT 310V010 9999 SCT019 OVC110 17/17 Q1012 WHT
02:25
V
17 °C 10 km+ 11,000 ft 350° 350° 5 kt METAR EHLW 180025Z AUTO 35005KT 9999 FEW066 OVC110 17/16 Q1012 BLU
01:55
V
17 °C 10 km+ 6,300 ft 330° 330° 3 kt METAR EHLW 172355Z AUTO 33003KT 300V360 9999 OVC063 17/17 Q1012 BLU
01:26
V
17 °C 10 km+ 9,100 ft 350° 350° 4 kt METAR EHLW 172326Z AUTO 35004KT 9999 FEW023 SCT085 BKN091 17/17 Q1013 BLU
01:25
M
17 °C 10 km+ 2,300 ft 350° 350° 4 kt METAR EHLW 172325Z AUTO 35004KT 9999 BKN023 BKN085 OVC094 17/17 Q1013 WHT
01:15
V
17 °C 10 km+ 8,500 ft 360° 360° 3 kt METAR EHLW 172315Z AUTO 36003KT 340V040 9999 SCT023 OVC085 17/17 Q1013 WHT
01:09
V
17 °C 10 km+ 8,400 ft 020° 020° 4 kt METAR EHLW 172309Z AUTO 02004KT 340V040 9999 FEW009 SCT076 OVC084 17/17 Q1013 BLU
00:55
M
18 °C 10 km+ 1,300 ft 030° 030° 4 kt METAR EHLW 172255Z AUTO 03004KT 350V050 9999 FEW009 BKN013 BKN016 18/17 Q1012 GRN
00:43
M
18 °C 10 km+ 1,200 ft 040° 040° 6 kt METAR EHLW 172243Z AUTO 04006KT 360V060 9999 FEW010 BKN012 OVC085 18/17 Q1012 GRN
00:42
V
18 °C 10 km+ 8,500 ft 040° 040° 6 kt METAR EHLW 172242Z AUTO 04006KT 350V060 9999 FEW010 SCT016 BKN085 18/17 Q1012 WHT
00:29
V
18 °C 10 km+ 10,000 ft 030° 030° 6 kt METAR EHLW 172229Z AUTO 03006KT 350V060 9999 FEW010 OVC100 18/17 Q1012 BLU
00:25
V
18 °C 10 km+ 10,000 ft 030° 030° 6 kt METAR EHLW 172225Z AUTO 03006KT 360V090 9999 SCT010 SCT083 OVC100 18/17 Q1012 GRN

August 17, 2022

Time Code Weather Temp. Visibility Ceiling Wind METAR/SPECI
23:55
V
18 °C 10 km+ 7,600 ft 030° 030° 6 kt METAR EHLW 172155Z AUTO 03006KT 360V070 9999 BKN076 BKN093 OVC100 18/17 Q1012 BLU
23:25
V
18 °C 10 km+ 7,200 ft 030° 030° 6 kt METAR EHLW 172125Z AUTO 03006KT 360V060 9999 BKN072 OVC080 18/17 Q1012 BLU
22:55
V
18 °C 10 km+ 7,500 ft 030° 030° 6 kt METAR EHLW 172055Z AUTO 03006KT 360V060 9999 SCT061 OVC075 18/16 Q1012 BLU
22:25
V
18 °C 10 km+ 4,100 ft 030° 030° 7 kt METAR EHLW 172025Z AUTO 03007KT 360V080 9999 OVC041 18/17 Q1012 REDZ BLU
22:12
V
18 °C 10 km+ 3,800 ft 040° 040° 7 kt METAR EHLW 172012Z AUTO 04007KT 360V070 9999 -DZ FEW015CB OVC038 18/17 Q1012 BLU
22:00
V
18 °C 10 km+ 5,200 ft 040° 040° 7 kt METAR EHLW 172000Z AUTO 04007KT 360V090 9999 +DZRA SCT038/// OVC052/// 18/17 Q1012 BLU
21:55
V
18 °C 10 km+ 5,400 ft 050° 050° 9 kt METAR EHLW 171955Z AUTO 05009KT 360V090 9999 -RA FEW015CB SCT038 OVC054 18/17 Q1012 BLU
21:38
V
18 °C 10 km+ 4,000 ft 060° 060° 8 kt METAR EHLW 171938Z AUTO 06008KT 350V130 9999 -DZ FEW013 FEW015CB SCT036 BKN040 18/17 Q1012 BLU
21:30
M
19 °C 10 km+ 1,500 ft 060° 060° 7 kt METAR EHLW 171930Z AUTO 06007KT 360V140 9999 -DZ FEW011 BKN015CB 19/17 Q1012 WHT
21:25
M
19 °C 10 km+ 1,400 ft 050° 050° 6 kt METAR EHLW 171925Z AUTO 05006KT 360V100 9999 DZ FEW011 BKN014 FEW015CB BKN016 19/18 Q1012 GRN
21:16
V
19 °C 10 km+ 4,500 ft 040° 040° 7 kt METAR EHLW 171916Z AUTO 04007KT 350V080 9999 -RA FEW013 FEW015CB SCT016 BKN045 19/18 Q1012 WHT
20:55
V
19 °C 10 km+ 6,400 ft 020° 020° 9 kt METAR EHLW 171855Z AUTO 02009KT 350V070 9999 FEW014 OVC064 19/18 Q1011 BLU
20:25
V
19 °C 10 km+ 6,200 ft 030° 030° 8 kt METAR EHLW 171825Z AUTO 03008KT 360V060 9999 -RADZ FEW015CB BKN062 OVC068 19/18 Q1011 BLU
20:13
V
19 °C 10 km+ 12,000 ft 020° 020° 8 kt METAR EHLW 171813Z AUTO 02008KT 350V060 9999 DZRA FEW015CB SCT068 OVC120 19/18 Q1011 BLU
19:55
V
19 °C 10 km+ 6,300 ft 030° 030° 10 kt METAR EHLW 171755Z AUTO 03010KT 360V060 9999 FEW015CB BKN063 OVC110 19/18 Q1011 REDZ BLU
19:37
V
19 °C 10 km+ 9,700 ft 040° 040° 10 kt METAR EHLW 171737Z AUTO 04010KT 340V070 9999 DZRA FEW015CB SCT085 BKN097 19/18 Q1011 BLU
19:25
V
19 °C 9 km 6,700 ft 040° 040° 10 kt METAR EHLW 171725Z AUTO 04010KT 360V080 9000 -RA FEW015CB OVC067 19/18 Q1011 BLU
19:15
V
19 °C 10 km+ 10,000 ft 040° 040° 9 kt METAR EHLW 171715Z AUTO 04009KT 360V080 9999 -SHRA FEW015CB OVC100 19/18 Q1011 BLU
18:55
V
20 °C 10 km+ 7,400 ft 040° 040° 9 kt METAR EHLW 171655Z AUTO 04009KT 360V060 9999 -RA FEW015CB BKN074 OVC085 20/18 Q1011 RERA REDZ BLU
18:44
V
20 °C 10 km+ 10,000 ft 030° 030° 8 kt METAR EHLW 171644Z AUTO 03008KT 360V060 9999 DZRA FEW015CB OVC100 20/18 Q1011 BLU
18:25
V
19 °C 10 km+ 10,000 ft 040° 040° 11 kt METAR EHLW 171625Z AUTO 04011KT 360V060 9999 FEW008 FEW015CB OVC100 19/18 Q1011 BLU
18:14
V
19 °C 10 km+ 9,800 ft 030° 030° 10 kt METAR EHLW 171614Z AUTO 03010KT 360V060 9999 -DZRA FEW008 FEW015CB OVC098 19/18 Q1012 BLU
17:55
V
20 °C 10 km+ 9,800 ft 030° 030° 11 kt METAR EHLW 171555Z AUTO 03011KT 350V060 9999 FEW015CB OVC098 20/18 Q1012 REDZ BLU
17:37
M
20 °C 10 km+ 1,500 ft 030° 030° 9 kt METAR EHLW 171537Z AUTO 03009KT 350V070 9999 -DZRA BKN015CB OVC100 20/18 Q1012 WHT
17:25
M
19 °C 10 km+ 1,500 ft 040° 040° 9 kt METAR EHLW 171525Z AUTO 04009KT 360V070 9999 -RA BKN015CB SCT091 OVC100 19/18 Q1012 RETSRA WHT
17:08
M
19 °C 9 km 1,500 ft 050° 050° 10 kt METAR EHLW 171508Z AUTO 05010KT 350V120 9000 TSRA BKN015CB SCT018 BKN027 19/18 Q1012 WHT
16:55
M
20 °C 10 km+ 1,500 ft 050° 050° 11 kt METAR EHLW 171455Z AUTO 05011KT 340V140 9999 RA BKN015CB BKN020 BKN038 20/17 Q1012 WHT
16:42
V
21 °C 10 km+ 8,200 ft 030° 030° 15 kt METAR EHLW 171442Z AUTO 03015KT 350V070 9999 SCT015CB SCT068 BKN082 21/17 Q1011 WHT
16:29
V
21 °C 10 km+ 10,000 ft 020° 020° 16 kt METAR EHLW 171429Z AUTO 02016KT 360V060 9999 FEW016 SCT096 OVC100 21/17 Q1011 BLU
16:25
V
21 °C 10 km+ 10,000 ft 020° 020° 15 kt METAR EHLW 171425Z AUTO 02015KT 350V050 9999 SCT016 OVC100 21/17 Q1011 WHT
16:08
V
21 °C 10 km+ 10,000 ft 020° 020° 14 kt METAR EHLW 171408Z AUTO 02014KT 350V050 9999 SCT017 SCT020 OVC100 21/18 Q1012 WHT
16:01
V
21 °C 10 km+ 7,100 ft 020° 020° 12 kt METAR EHLW 171401Z AUTO 02012KT 360V060 9999 FEW019 BKN071 BKN078 21/17 Q1012 BLU TEMPO 4000 SHRA RA FEW010 SCT012 SCT060CB
15:55
M
21 °C 10 km+ 1,700 ft 020° 020° 13 kt METAR EHLW 171355Z AUTO 02013KT 360V060 9999 BKN017 OVC071 21/17 Q1012 WHT TEMPO 4000 SHRA RA FEW010 SCT012 SCT060CB
15:26
M
20 °C 10 km+ 2,800 ft 020° 020° 13 kt METAR EHLW 171326Z AUTO 02013KT 350V070 9999 SCT016 BKN028 BKN050 20/18 Q1012 WHT TEMPO 4000 SHRA RA FEW010 SCT012 SCT060CB
15:25
V
20 °C 10 km+ 6,400 ft 020° 020° 12 kt METAR EHLW 171325Z AUTO 02012KT 350V050 9999 FEW016 SCT025 BKN064 20/18 Q1012 BLU TEMPO 4000 SHRA RA FEW010 SCT012 SCT060CB
15:14
V
21 °C 10 km+ 8,900 ft 020° 020° 13 kt METAR EHLW 171314Z AUTO 02013KT 350V060 9999 SCT015 SCT075 OVC089 21/18 Q1012 WHT TEMPO 4000 SHRA RA FEW010 SCT012 SCT060CB
14:59
V
21 °C 10 km+ 7,500 ft 030° 030° 14 kt METAR EHLW 171259Z AUTO 03014KT 350V070 9999 FEW012 OVC075 21/18 Q1012 BLU TEMPO 4000 SHRA RA FEW010 SCT012 SCT060CB
14:55
V
21 °C 10 km+ 7,500 ft 030° 030° 14 kt METAR EHLW 171255Z AUTO 03014KT 350V070 9999 FEW012 SCT015 OVC075 21/18 Q1012 WHT TEMPO 4000 SHRA RA FEW010 SCT012 SCT060CB
14:25
M
20 °C 10 km+ 1,200 ft 030° 030° 12 kt METAR EHLW 171225Z AUTO 03012KT 360V060 9999 SCT010 BKN012 OVC072 20/18 Q1012 GRN TEMPO 4000 SHRA RA FEW010 SCT012 SCT060CB
14:20
V
20 °C 10 km+ 7,300 ft 030° 030° 13 kt METAR EHLW 171220Z AUTO 03013KT 360V060 9999 FEW010 SCT012 OVC073 20/18 Q1012 GRN TEMPO 4000 SHRA RA FEW010 SCT012 SCT060CB
14:11
V
20 °C 10 km+ 7,300 ft 030° 030° 14 kt METAR EHLW 171211Z AUTO 03014KT 360V060 9999 SCT010 SCT014 OVC073 20/18 Q1011 GRN TEMPO 4000 SHRA RA FEW010 SCT012 SCT060CB
14:07
V
20 °C 10 km+ 7,300 ft 030° 030° 15 kt METAR EHLW 171207Z AUTO 03015KT 360V070 9999 FEW011 SCT013 OVC073 20/18 Q1011 GRN TEMPO 4000 SHRA RA FEW012 SCT060CB
13:55
V
20 °C 10 km+ 7,400 ft 040° 040° 13 kt METAR EHLW 171155Z AUTO 04013KT 350V070 9999 OVC074 20/17 Q1011 BLU TEMPO 4500 SHRA FEW010 SCT015 SCT050CB
13:25
V
19 °C 10 km+ 8,500 ft 020° 020° 11 kt METAR EHLW 171125Z AUTO 02011KT 350V060 9999 FEW015CB SCT074 BKN085 19/17 Q1011 BLU TEMPO 4500 SHRA FEW010 SCT015 SCT050CB
13:18
V
19 °C 10 km+ 8,500 ft 020° 020° 12 kt METAR EHLW 171118Z AUTO 02012KT 350V060 9999 FEW015CB BKN085 BKN092 19/17 Q1011 BLU TEMPO 4500 SHRA FEW010 SCT015 SCT050CB
13:17
V
19 °C 10 km+ 8,500 ft 020° 020° 12 kt METAR EHLW 171117Z AUTO 02012KT 360V060 9999 SCT015CB BKN085 BKN091 19/17 Q1012 WHT TEMPO 4500 SHRA FEW010 SCT015 SCT050CB
13:04
V
19 °C 10 km+ 8,700 ft 040° 040° 15 kt METAR EHLW 171104Z AUTO 04015KT 360V080 9999 SCT015CB SCT074 BKN087 19/17 Q1011 WHT TEMPO 4500 SHRA FEW010 SCT015 SCT050CB
12:55
M
18 °C 10 km+ 1,500 ft 030° 030° 15 kt METAR EHLW 171055Z AUTO 03015KT 340V050 9999 -SHRA BKN015CB SCT027 BKN069 18/17 Q1012 RERA WHT TEMPO 4500 SHRA FEW010 SCT015 SCT050CB
12:35
M
18 °C 8 km 1,500 ft 320° 320° 8 kt METAR EHLW 171035Z AUTO 32008KT 280V010 8000 RA FEW011 BKN015CB BKN060 18/17 Q1012 WHT TEMPO 4500 SHRA FEW010 SCT015 SCT050CB
12:25
M
18 °C 7 km 1,500 ft 360° 360° 9 kt METAR EHLW 171025Z AUTO 36009KT 310V010 7000 SHRA FEW013 BKN015CB BKN063 OVC069 18/17 Q1012 WHT TEMPO 4500 SHRA SCT015 SCT050CB
12:14
I
18 °C 4.9 km 1,500 ft 340° 340° 8 kt METAR EHLW 171014Z AUTO 34008KT 300V010 4900 SHRA BKN015CB BKN057 OVC064 18/16 Q1012 GRN TEMPO 4500 SHRA SCT015 SCT050CB
12:11
M
18 °C 5 km 1,500 ft 340° 340° 8 kt METAR EHLW 171011Z AUTO 34008KT 310V010 5000 SHRA BKN015CB BKN059 OVC067 18/16 Q1012 WHT TEMPO 4500 SHRA SCT015 SCT050CB
12:00
M
18 °C 10 km+ 1,500 ft 350° 350° 8 kt METAR EHLW 171000Z AUTO 35008KT 280V360 9999 SHRA BKN015CB BKN060 OVC065 18/16 Q1012 WHT TEMPO 2200 SHRA TSRA FEW008 SCT012 SCT050CB
11:55
M
18 °C 10 km+ 1,500 ft 360° 360° 9 kt METAR EHLW 170955Z AUTO 36009KT 280V010 9999 -RA BKN015CB OVC065 18/16 Q1012 RERA WHT TEMPO 2200 SHRA TSRA FEW008 SCT012 SCT050CB
11:38
M
18 °C 6 km 1,500 ft 010° 010° 11 kt METAR EHLW 170938Z AUTO 01011KT 330V040 6000 RA FEW008 BKN015CB BKN049 OVC054 18/16 Q1012 WHT TEMPO 2200 SHRA TSRA FEW008 SCT012 SCT050CB
11:32
I
19 °C 4.9 km 1,500 ft 020° 020° 8 kt METAR EHLW 170932Z AUTO 02008KT 330V030 4900 +SHRA FEW008 BKN015CB BKN052 BKN060 19/17 Q1012 GRN TEMPO 2200 SHRA SCT012 SCT050CB
11:25
I
19 °C 3.5 km 5,000 ft 020° 020° 7 kt METAR EHLW 170925Z AUTO 02007KT 330V040 3500 R05/P3000D +SHRA SCT015CB BKN050 BKN057 19/18 Q1012 YLO TEMPO 2200 SHRA SCT012 SCT050CB
11:18
M
19 °C 6 km 1,500 ft 010° 010° 8 kt METAR EHLW 170918Z AUTO 01008KT 6000 RA BKN015CB SCT054 BKN070 19/18 Q1012 WHT TEMPO 2200 SHRA SCT012 SCT050CB
11:11
I
19 °C 4.3 km 1,500 ft 020° 020° 8 kt METAR EHLW 170911Z AUTO 02008KT 4300 SHRA BKN015CB BKN077 OVC083 19/18 Q1012 GRN TEMPO 2200 SHRA SCT012 SCT050CB
11:07
I
19 °C 4.9 km 1,500 ft 010° 010° 6 kt METAR EHLW 170907Z AUTO 01006KT 330V030 4900 -RA BKN015CB SCT070 BKN077 19/18 Q1012 GRN TEMPO 2200 SHRA SCT012 SCT050CB
10:55
I
19 °C 2.4 km 1,500 ft 020° 020° 3 kt METAR EHLW 170855Z AUTO 02003KT 340V040 2400 R05/2400D +RA BKN015CB SCT024 OVC042 19/19 Q1013 YLO TEMPO 1800 SHRA TSRA SCT012 SCT050CB
10:40
I
19 °C 3.2 km 5,500 ft 360° 360° 5 kt METAR EHLW 170840Z AUTO 36005KT 3200 R05/P3000N RA SCT015CB BKN055 OVC062 19/19 Q1012 YLO TEMPO 3000 SHRA TSRA SCT012 SCT050CB
10:33
I
20 °C 4.5 km 3,100 ft 360° 360° 5 kt METAR EHLW 170833Z AUTO 36005KT 4500 -RA FEW015CB SCT023 BKN031 20/19 Q1012 GRN TEMPO 3000 SHRA TSRA SCT012 SCT050CB
10:25
M
20 °C 5 km 6,400 ft 340° 340° 3 kt METAR EHLW 170825Z AUTO 34003KT 330V030 5000 -DZ FEW006 FEW015CB BKN064 OVC070 20/19 Q1012 WHT TEMPO 3000 SHRA TSRA SCT012 SCT050CB
10:10
M
20 °C 5 km 7,100 ft 020° 020° 5 kt METAR EHLW 170810Z AUTO 02005KT 5000 -DZ FEW015CB BKN071 OVC077 20/19 Q1012 WHT TEMPO 3000 SHRA TSRA SCT012 SCT050CB
09:57
M
20 °C 5 km 7,500 ft 010° 010° 8 kt METAR EHLW 170757Z AUTO 01008KT 5000 -RA FEW015CB SCT056 OVC075 20/19 Q1011 WHT TEMPO 3000 SHRA TSRA SCT012 SCT050CB
09:55
I
20 °C 4.7 km 7,300 ft 020° 020° 7 kt METAR EHLW 170755Z AUTO 02007KT 360V060 4700 -RA FEW015CB OVC073 20/19 Q1011 RERA REDZ GRN TEMPO 3000 SHRA TSRA SCT012 SCT050CB
09:41
I
20 °C 4.2 km 7,900 ft 020° 020° 7 kt METAR EHLW 170741Z AUTO 02007KT 4200 -DZ SCT015CB BKN079 BKN086 20/19 Q1011 GRN TEMPO 3000 SHRA SCT012 SCT050CB
09:30
I
20 °C 2.9 km 9,800 ft 030° 030° 7 kt METAR EHLW 170730Z AUTO 03007KT 360V060 2900 R05/2900U DZRA SCT015CB SCT092 OVC098 20/19 Q1011 YLO TEMPO 3000 SHRA SCT012 SCT050CB
09:25
I
19 °C 2.6 km 10,000 ft 020° 020° 7 kt METAR EHLW 170725Z AUTO 02007KT 2600 R05/2600U -RA SCT015CB SCT090 OVC100 19/19 Q1011 YLO TEMPO 3000 SHRA SCT012 SCT050CB
09:11
I
19 °C 2.1 km 9,900 ft 020° 020° 6 kt METAR EHLW 170711Z AUTO 02006KT 2100 R05/2100U -RA SCT015CB SCT088 OVC099 19/19 Q1011 YLO TEMPO 3000 SHRA SCT012 SCT050CB
09:03
I
19 °C 1.8 km 7,500 ft 360° 360° 4 kt METAR EHLW 170703Z AUTO 36004KT 1800 R05/1800D RA FEW015CB SCT064 BKN075 19/19 Q1011 YLO TEMPO 3000 SHRA SCT012 SCT050CB
08:59
I
19 °C 2.1 km 7,400 ft 350° 350° 4 kt METAR EHLW 170659Z AUTO 35004KT 310V010 2100 R05/2100D SHRA FEW007 FEW015CB BKN074 OVC082 19/19 Q1012 YLO TEMPO 3000 SHRA SCT012 SCT050CB BECMG 6000 NSW SCT020
08:55
I
19 °C 2.5 km 8,300 ft Var Var 2 kt METAR EHLW 170655Z AUTO VRB02KT 2500 R05/2500D -RADZ FEW007 FEW015CB SCT075 BKN083 19/19 Q1012 YLO TEMPO 3000 SHRA SCT012 SCT050CB BECMG 6000 NSW SCT020
08:44
I
19 °C 3 km 8,400 ft Var 000° 0 kt METAR EHLW 170644Z AUTO 00000KT 3000 R05/3000U DZRA FEW015CB BKN084 OVC090 19/19 Q1012 YLO TEMPO 3000 SHRA SCT012 SCT050CB BECMG 6000 NSW SCT020
08:25
I
19 °C 2.6 km 9,200 ft 270° 270° 1 kt METAR EHLW 170625Z AUTO 27001KT 2600 R05/2600N -DZ FEW006 FEW015CB SCT056 BKN092 19/19 Q1011 YLO TEMPO 3000 SHRA SCT012 SCT050CB BECMG 6000 NSW SCT020
08:17
I
19 °C 2.4 km 2,000 ft Var Var 2 kt METAR EHLW 170617Z AUTO VRB02KT 2400 R05/2400N BR FEW006 SCT008 BKN020 19/19 Q1011 YLO TEMPO 3000 SHRA SCT012 SCT050CB BECMG 6000 NSW SCT020
08:00
L
18 °C 2.2 km 300 ft 270° 270° 4 kt METAR EHLW 170600Z AUTO 27004KT 2200 R05/2200U BR BKN003 OVC004 18/18 Q1011 YLO TEMPO 3000 SHRA SCT012 SCT050CB BECMG 6000 NSW SCT020
07:55
L
18 °C 2 km 100 ft 280° 280° 6 kt METAR EHLW 170555Z AUTO 28006KT 240V300 2000 R05/2000U BR BKN001 OVC002 18/18 Q1011 RED TEMPO 3000 SHRA SCT012 SCT050CB BECMG 6000 NSW SCT020
07:41
I
18 °C 1.7 km - 260° 260° 7 kt METAR EHLW 170541Z AUTO 26007KT 220V320 1700 R05/0900U BR OVC000 18/17 Q1011 RED TEMPO 3000 SHRA SCT012 SCT050CB BECMG 6000 NSW SCT020
07:25
L
17 °C 300 m - Var Var 2 kt METAR EHLW 170525Z AUTO VRB02KT 0300 R05/0275N FG OVC000 17/17 Q1011 RED TEMPO 3000 SHRA SCT012 SCT050CB BECMG 6000 NSW SCT020
07:18
L
17 °C 250 m - Var Var 2 kt METAR EHLW 170518Z AUTO VRB02KT 0250 FG OVC000 17/17 Q1011 RED
06:55
L
17 °C 150 m - Var Var 2 kt METAR EHLW 170455Z AUTO VRB02KT 0150 FG OVC000 17/17 Q1011 RED
06:25
L
16 °C 250 m - Var Var 1 kt METAR EHLW 170425Z AUTO VRB01KT 0250 FG OVC000 16/16 Q1011 RED
05:55
L
16 °C 400 m - Var Var 2 kt METAR EHLW 170355Z AUTO VRB02KT 0400 FG OVC000 16/16 Q1010 RED
05:25
L
17 °C 200 m - Var Var 4 kt METAR EHLW 170325Z AUTO VRB04KT 0200 FG OVC000 17/17 Q1010 RED
04:55
L
16 °C 200 m - 030° 030° 2 kt METAR EHLW 170255Z AUTO 03002KT 0200 FG OVC000 16/16 Q1011 RED
04:34
L
16 °C 200 m - 050° 050° 3 kt METAR EHLW 170234Z AUTO 05003KT 350V140 0200 FG BKN000 16/16 Q1010 RED
04:33
L
17 °C 150 m - 060° 060° 3 kt METAR EHLW 170233Z AUTO 06003KT 350V140 0150 FG SCT000 17/16 Q1010 RED
04:25
L
17 °C 400 m - 080° 080° 3 kt METAR EHLW 170225Z AUTO 08003KT 020V130 0400 FG FEW000 17/16 Q1010 RED
04:06
L
17 °C 500 m - Var Var 2 kt METAR EHLW 170206Z AUTO VRB02KT 0500 FG NCD 17/17 Q1010 RED
04:05
L
17 °C 800 m - Var Var 2 kt METAR EHLW 170205Z AUTO VRB02KT 0800 FG NCD 17/17 Q1010 AMB
03:55
I
17 °C 3.2 km 12,000 ft 060° 060° 3 kt METAR EHLW 170155Z AUTO 06003KT 020V100 3200 BR BKN120 17/17 Q1010 YLO
03:25
I
17 °C 3.3 km 12,000 ft 030° 030° 2 kt METAR EHLW 170125Z AUTO 03002KT 3300 BR OVC120 17/17 Q1010 YLO
02:55
I
17 °C 2.7 km 11,000 ft 050° 050° 3 kt METAR EHLW 170055Z AUTO 05003KT 2700 BR OVC110 17/17 Q1010 YLO
02:29
I
18 °C 3.1 km 12,000 ft Var Var 2 kt METAR EHLW 170029Z AUTO VRB02KT 3100 BR OVC120/// 18/18 Q1010 YLO
02:25
I
18 °C 3.8 km 11,000 ft Var Var 2 kt METAR EHLW 170025Z AUTO VRB02KT 3800 BR OVC110 18/17 Q1010 GRN
02:07
I
18 °C 3.8 km 12,000 ft Var Var 2 kt METAR EHLW 170007Z AUTO VRB02KT 3800 BR OVC120 18/18 Q1010 GRN
01:56
I
18 °C 3.8 km 10,000 ft 060° 060° 3 kt METAR EHLW 162356Z AUTO 06003KT 020V120 3800 BR OVC100 18/18 Q1011 GRN
01:55
I
18 °C 3.5 km 10,000 ft 040° 040° 3 kt METAR EHLW 162355Z AUTO 04003KT 360V080 3500 BR FEW091 OVC100 18/18 Q1011 YLO
01:44
I
18 °C 4.4 km 10,000 ft 050° 050° 3 kt METAR EHLW 162344Z AUTO 05003KT 330V110 4400 BR FEW094 OVC100 18/18 Q1011 GRN
01:25
I
19 °C 3.2 km 10,000 ft 070° 070° 3 kt METAR EHLW 162325Z AUTO 07003KT 050V150 3200 BR OVC100 19/18 Q1011 YLO
01:01
I
18 °C 3.2 km 10,000 ft 080° 080° 3 kt METAR EHLW 162301Z AUTO 08003KT 050V140 3200 BR OVC100 18/18 Q1011 YLO
00:55
I
18 °C 3.9 km 11,000 ft 080° 080° 3 kt METAR EHLW 162255Z AUTO 08003KT 360V150 3900 BR OVC110 18/18 Q1011 GRN
00:26
I
18 °C 3.3 km 12,000 ft 070° 070° 3 kt METAR EHLW 162226Z AUTO 07003KT 360V150 3300 BR OVC120 18/18 Q1011 YLO
00:25
I
18 °C 3.8 km 12,000 ft 070° 070° 3 kt METAR EHLW 162225Z AUTO 07003KT 360V150 3800 BR OVC120 18/18 Q1011 GRN
00:08
I
18 °C 4.5 km 10,000 ft 070° 070° 3 kt METAR EHLW 162208Z AUTO 07003KT 040V140 4500 BR OVC100 18/18 Q1011 GRN

August 16, 2022

Time Code Weather Temp. Visibility Ceiling Wind METAR/SPECI
23:55
I
18 °C 3.9 km 10,000 ft 060° 060° 4 kt METAR EHLW 162155Z AUTO 06004KT 020V170 3900 BR OVC100 18/18 Q1011 GRN
23:40
I
18 °C 4.7 km 10,000 ft 060° 060° 3 kt METAR EHLW 162140Z AUTO 06003KT 360V130 4700 BR OVC100 18/18 Q1011 GRN
23:30
M
18 °C 5 km 12,000 ft 070° 070° 4 kt METAR EHLW 162130Z AUTO 07004KT 020V150 5000 BR OVC120 18/18 Q1011 WHT
23:25
I
18 °C 4.3 km 12,000 ft 060° 060° 4 kt METAR EHLW 162125Z AUTO 06004KT 020V120 4300 BR OVC120 18/17 Q1011 GRN
23:12
I
17 °C 4.1 km 13,000 ft 060° 060° 3 kt METAR EHLW 162112Z AUTO 06003KT 350V140 4100 BR OVC130 17/17 Q1011 GRN
22:55
M
18 °C 6 km 27,000 ft Var Var 1 kt METAR EHLW 162055Z AUTO VRB01KT 6000 BR SCT130 OVC270 18/17 Q1010 WHT
22:25
M
17 °C 6 km 31,000 ft 360° 360° 3 kt METAR EHLW 162025Z AUTO 36003KT 6000 BR OVC310 17/17 Q1010 WHT
21:55
M
17 °C 7 km 27,000 ft 010° 010° 5 kt METAR EHLW 161955Z AUTO 01005KT 7000 BR FEW210 OVC270 17/16 Q1010 WHT
21:34
M
18 °C 7 km 21,000 ft 340° 340° 3 kt METAR EHLW 161934Z AUTO 34003KT 7000 BR SCT160 OVC210 18/17 Q1010 WHT
21:25
V
18 °C 8 km 16,000 ft 340° 340° 3 kt METAR EHLW 161925Z AUTO 34003KT 8000 BR OVC160 18/17 Q1010 BLU
20:55
V
19 °C 9 km 14,000 ft 330° 330° 4 kt METAR EHLW 161855Z AUTO 33004KT 290V350 9000 BR OVC140 19/18 Q1009 BLU
20:25
V
21 °C 10 km+ 12,000 ft 300° 300° 4 kt METAR EHLW 161825Z AUTO 30004KT 9999 OVC120 21/18 Q1009 BLU
19:55
V
22 °C 10 km+ 12,000 ft 310° 310° 5 kt METAR EHLW 161755Z AUTO 31005KT 260V350 9999 OVC120 22/19 Q1009 BLU
19:25
V
22 °C 10 km+ 11,000 ft 290° 290° 5 kt METAR EHLW 161725Z AUTO 29005KT 260V340 9999 OVC110 22/18 Q1009 BLU
18:55
V
22 °C 10 km+ 11,000 ft 310° 310° 7 kt METAR EHLW 161655Z AUTO 31007KT 260V320 9999 OVC110 22/18 Q1009 BLU
18:25
V
22 °C 10 km+ 11,000 ft 290° 290° 7 kt METAR EHLW 161625Z AUTO 29007KT 280V350 9999 OVC110 22/17 Q1009 BLU
17:55
V
23 °C 10 km+ 12,000 ft 270° 270° 7 kt METAR EHLW 161555Z AUTO 27007KT 260V330 9999 OVC120 23/18 Q1008 BLU
17:25
V
24 °C 10 km+ 15,000 ft 280° 280° 8 kt METAR EHLW 161525Z AUTO 28008KT 250V320 9999 BKN150 OVC250 24/18 Q1008 BLU
16:55
V
24 °C 10 km+ 23,000 ft 280° 280° 8 kt METAR EHLW 161455Z AUTO 28008KT 220V280 9999 SCT170 OVC230 24/17 Q1008 BLU
Older data

We and third parties follow your internet behavior on our website with cookies. If you continue, we assume you agree with our cookie policy. Learn more